Terminal Aerodrome Forecast
Issued by NWS Miami, FL

Home | Current Version | Previous Version | Text Only | Print | Product List | Glossary On
Versions: 1 2 3 4 5 6 7 8 9 10 11 12 13 14 15 16 17 18 19 20 21 22 23 24 25
000
FTUS42 KMFL 301720
TAFPBI
TAF
KPBI 301720Z 3018/3118 09008KT P6SM VCSH SCT030 SCT060
     FM302300 VRB03KT P6SM FEW030 SCT250
     FM311400 09005KT P6SM VCSH SCT030 SCT060=

USA.gov is the U.S. government's official web portal to all federal, state and local government web resources and services.